createdAt,value
2022-07-30T00:00:04.805Z,1
2022-07-30T00:01:59.330Z,1
2022-07-30T00:04:04.232Z,1
2022-07-30T00:05:59.211Z,1
2022-07-30T00:07:59.537Z,1
2022-07-30T00:10:05.386Z,1
2022-07-30T00:12:02.875Z,1
2022-07-30T00:14:00.178Z,1
2022-07-30T00:16:06.448Z,1
2022-07-30T00:17:59.351Z,1
2022-07-30T00:20:03.515Z,1
2022-07-30T00:21:59.815Z,1
2022-07-30T00:24:02.468Z,1
2022-07-30T00:26:02.385Z,1
2022-07-30T00:28:01.608Z,1
2022-07-30T00:30:04.360Z,1
2022-07-30T00:32:00.337Z,1
2022-07-30T00:34:02.513Z,1
2022-07-30T00:36:02.811Z,1
2022-07-30T00:38:04.212Z,1
2022-07-30T00:40:03.259Z,1
2022-07-30T00:41:59.343Z,1
2022-07-30T00:43:59.765Z,1
2022-07-30T00:46:06.414Z,1
2022-07-30T00:48:05.770Z,1
2022-07-30T00:49:59.353Z,1
2022-07-30T00:52:00.020Z,1
2022-07-30T00:54:02.224Z,1
2022-07-30T00:56:03.180Z,1
2022-07-30T00:58:00.175Z,1
2022-07-30T01:00:09.662Z,1
2022-07-30T01:02:03.302Z,1
2022-07-30T01:03:59.494Z,1
2022-07-30T01:06:14.105Z,1
2022-07-30T01:07:59.302Z,1
2022-07-30T01:09:59.320Z,1
2022-07-30T01:12:05.768Z,1
2022-07-30T01:14:00.001Z,1
2022-07-30T01:16:00.022Z,1
2022-07-30T01:18:02.018Z,1
2022-07-30T01:19:59.627Z,1
2022-07-30T01:21:59.455Z,1
2022-07-30T01:24:09.397Z,1
2022-07-30T01:26:09.220Z,1
2022-07-30T01:27:59.645Z,1
2022-07-30T01:30:02.225Z,1
2022-07-30T01:32:01.872Z,1
2022-07-30T01:33:59.227Z,1
2022-07-30T01:36:02.494Z,1
2022-07-30T01:38:03.625Z,1
2022-07-30T01:39:59.284Z,1
2022-07-30T01:41:59.860Z,1
2022-07-30T01:43:59.936Z,1
2022-07-30T01:45:59.377Z,1
2022-07-30T01:48:03.117Z,1
2022-07-30T01:49:59.778Z,1
2022-07-30T01:51:59.207Z,1
2022-07-30T01:54:05.126Z,1
2022-07-30T01:55:59.357Z,1
2022-07-30T01:58:08.742Z,1
2022-07-30T02:00:04.032Z,1
2022-07-30T02:02:03.377Z,1
2022-07-30T02:04:04.096Z,1
2022-07-30T02:06:02.432Z,1
2022-07-30T02:07:59.282Z,1
2022-07-30T02:10:00.010Z,1
2022-07-30T02:12:03.303Z,1
2022-07-30T02:14:07.340Z,1
2022-07-30T02:15:59.909Z,1
2022-07-30T02:18:00.147Z,1
2022-07-30T02:19:59.353Z,1
2022-07-30T02:22:00.155Z,1
2022-07-30T02:24:03.281Z,1
2022-07-30T02:26:00.728Z,1
2022-07-30T02:27:59.752Z,1
2022-07-30T02:29:59.358Z,1
2022-07-30T02:31:59.512Z,1
2022-07-30T02:33:59.298Z,1
2022-07-30T02:36:02.912Z,1
2022-07-30T02:38:03.567Z,1
2022-07-30T02:39:59.373Z,1
2022-07-30T02:42:00.479Z,1
2022-07-30T02:44:02.873Z,1
2022-07-30T02:45:59.341Z,1
2022-07-30T02:48:00.304Z,1
2022-07-30T02:49:59.378Z,1
2022-07-30T02:51:59.890Z,1
2022-07-30T02:54:01.969Z,0
2022-07-30T02:57:59.329Z,0
2022-07-30T03:02:05.960Z,0.1
2022-07-30T03:04:06.157Z,0.1
2022-07-30T03:05:59.856Z,0.2
2022-07-30T03:07:59.519Z,0.2
2022-07-30T03:10:03.409Z,0.3
2022-07-30T03:12:02.339Z,0.5
2022-07-30T03:13:59.384Z,0.6
2022-07-30T03:16:02.219Z,1
2022-07-30T03:18:00.744Z,1.3
2022-07-30T03:19:59.622Z,1.8
2022-07-30T03:22:00.040Z,2.6
2022-07-30T03:23:59.447Z,3.5
2022-07-30T03:26:05.703Z,5
2022-07-30T03:27:59.594Z,6.7
2022-07-30T03:30:02.836Z,9.5
2022-07-30T03:32:00.270Z,12.8
2022-07-30T03:34:02.193Z,17.3
2022-07-30T03:36:00.112Z,22.2
2022-07-30T03:38:03.981Z,28.5
2022-07-30T03:40:03.667Z,36.6
2022-07-30T03:41:59.919Z,44.7
2022-07-30T03:44:02.451Z,54.6
2022-07-30T03:45:59.880Z,66.7
2022-07-30T03:48:08.335Z,81.5
2022-07-30T03:50:03.222Z,94.6
2022-07-30T03:51:59.370Z,109.9
2022-07-30T03:54:02.617Z,127.7
2022-07-30T03:55:59.842Z,141.2
2022-07-30T03:58:03.107Z,164
2022-07-30T04:00:05.413Z,181.3
2022-07-30T04:01:59.860Z,200.3
2022-07-30T04:04:02.262Z,232.8
2022-07-30T04:06:06.178Z,270.4
2022-07-30T04:08:09.141Z,314.2
2022-07-30T04:10:03.716Z,365
2022-07-30T04:11:59.346Z,403.4
2022-07-30T04:13:59.317Z,468.7
2022-07-30T04:16:04.726Z,518
2022-07-30T04:17:59.327Z,572.5
2022-07-30T04:20:02.512Z,632.7
2022-07-30T04:22:03.895Z,699.2
2022-07-30T04:24:06.045Z,772.8
2022-07-30T04:25:59.382Z,812.4
2022-07-30T04:28:03.513Z,854.1
2022-07-30T04:30:02.230Z,897.8
2022-07-30T04:32:05.406Z,943.9
2022-07-30T04:34:02.986Z,1096.6
2022-07-30T04:36:02.536Z,1096.6
2022-07-30T04:37:59.449Z,1152.9
2022-07-30T04:40:04.527Z,1152.9
2022-07-30T04:41:59.507Z,1212
2022-07-30T04:44:06.099Z,1274.1
2022-07-30T04:45:59.500Z,1339.4
2022-07-30T04:48:01.871Z,1408.1
2022-07-30T04:50:06.291Z,1480.3
2022-07-30T04:51:59.975Z,1480.3
2022-07-30T04:54:02.402Z,1480.3
2022-07-30T04:55:59.644Z,1480.3
2022-07-30T04:58:00.201Z,1556.2
2022-07-30T05:00:02.721Z,1636
2022-07-30T05:02:04.142Z,1636
2022-07-30T05:04:06.559Z,1636
2022-07-30T05:06:09.408Z,1556.2
2022-07-30T05:08:03.730Z,1556.2
2022-07-30T05:11:59.392Z,1556.2
2022-07-30T05:14:04.062Z,1556.2
2022-07-30T05:16:04.123Z,1556.2
2022-07-30T05:18:03.520Z,1636
2022-07-30T05:20:03.532Z,1719.9
2022-07-30T05:22:03.526Z,1808
2022-07-30T05:23:59.574Z,1808
2022-07-30T05:25:59.357Z,2100.6
2022-07-30T05:28:00.312Z,2208.3
2022-07-30T05:30:02.076Z,2208.3
2022-07-30T05:32:02.748Z,1998.2
2022-07-30T05:34:02.908Z,1998.2
2022-07-30T05:36:00.006Z,2208.3
2022-07-30T05:38:00.263Z,2440.6
2022-07-30T05:40:06.244Z,2440.6
2022-07-30T05:41:59.387Z,2565.7
2022-07-30T05:43:59.369Z,2440.6
2022-07-30T05:45:59.441Z,2565.7
2022-07-30T05:47:59.255Z,2565.7
2022-07-30T05:50:07.471Z,2697.3
2022-07-30T05:52:01.816Z,2697.3
2022-07-30T05:54:06.009Z,2697.3
2022-07-30T05:55:59.911Z,2697.3
2022-07-30T05:58:00.251Z,2835.6
2022-07-30T05:59:59.367Z,2835.6
2022-07-30T06:01:59.487Z,2835.6
2022-07-30T06:04:09.498Z,2981
2022-07-30T06:05:59.945Z,2981
2022-07-30T06:07:59.857Z,2981
2022-07-30T06:10:07.097Z,3133.8
2022-07-30T06:14:04.100Z,3294.5
2022-07-30T06:15:59.369Z,3294.5
2022-07-30T06:18:02.916Z,3294.5
2022-07-30T06:19:59.391Z,3294.5
2022-07-30T06:22:01.886Z,3463.4
2022-07-30T06:23:59.806Z,3463.4
2022-07-30T06:26:03.399Z,3463.4
2022-07-30T06:28:15.596Z,3463.4
2022-07-30T06:29:59.624Z,3641
2022-07-30T06:31:59.379Z,4023.9
2022-07-30T06:34:02.474Z,3641
2022-07-30T06:38:05.651Z,2981
2022-07-30T06:40:00.310Z,3133.8
2022-07-30T06:42:04.131Z,3827.6
2022-07-30T06:45:59.404Z,3827.6
2022-07-30T06:48:07.334Z,4023.9
2022-07-30T06:50:02.205Z,4023.9
2022-07-30T06:52:02.775Z,4023.9
2022-07-30T06:56:00.512Z,4230.2
2022-07-30T06:57:59.382Z,4230.2
2022-07-30T06:59:59.299Z,3294.5
2022-07-30T07:01:59.820Z,3463.4
2022-07-30T07:04:01.618Z,4447.1
2022-07-30T07:05:59.500Z,4230.2
2022-07-30T07:07:59.854Z,4230.2
2022-07-30T07:10:02.285Z,4230.2
2022-07-30T07:12:03.434Z,4447.1
2022-07-30T07:14:02.712Z,4230.2
2022-07-30T07:16:03.430Z,4447.1
2022-07-30T07:18:00.515Z,4447.1
2022-07-30T07:21:59.988Z,4447.1
2022-07-30T07:24:02.022Z,4675.1
2022-07-30T07:25:59.387Z,4675.1
2022-07-30T07:28:10.804Z,4675.1
2022-07-30T07:30:01.125Z,4675.1
2022-07-30T07:34:02.830Z,4914.8
2022-07-30T07:35:59.545Z,4914.8
2022-07-30T07:37:59.527Z,4914.8
2022-07-30T07:39:59.947Z,4914.8
2022-07-30T07:42:06.561Z,4914.8
2022-07-30T07:44:02.711Z,5166.8
2022-07-30T07:46:02.270Z,5166.8
2022-07-30T07:48:02.358Z,5431.7
2022-07-30T07:49:59.950Z,5431.7
2022-07-30T07:52:03.644Z,5710.1
2022-07-30T07:56:04.100Z,5431.7
2022-07-30T07:58:03.203Z,6974.4
2022-07-30T08:00:13.365Z,6634.2
2022-07-30T08:01:59.642Z,6974.4
2022-07-30T08:04:03.728Z,6974.4
2022-07-30T08:06:06.128Z,6634.2
2022-07-30T08:08:02.980Z,6634.2
2022-07-30T08:12:03.133Z,4675.1
2022-07-30T08:13:59.992Z,6634.2
2022-07-30T08:16:02.286Z,6634.2
2022-07-30T08:18:05.704Z,6634.2
2022-07-30T08:20:00.276Z,6974.4
2022-07-30T08:22:02.830Z,7332
2022-07-30T08:23:59.708Z,7707.9
2022-07-30T08:25:59.396Z,8103.1
2022-07-30T08:28:03.195Z,7332
2022-07-30T08:32:02.296Z,6002.9
2022-07-30T08:33:59.510Z,8103.1
2022-07-30T08:36:03.154Z,6634.2
2022-07-30T08:37:59.401Z,8518.5
2022-07-30T08:40:03.038Z,7332
2022-07-30T08:41:59.731Z,5431.7
2022-07-30T08:44:03.258Z,8518.5
2022-07-30T08:45:59.380Z,6634.2
2022-07-30T08:48:12.514Z,7707.9
2022-07-30T08:50:07.012Z,8518.5
2022-07-30T08:51:59.520Z,8955.3
2022-07-30T08:54:03.091Z,8518.5
2022-07-30T08:56:02.188Z,8518.5
2022-07-30T08:58:02.837Z,6002.9
2022-07-30T09:00:07.864Z,8955.3
2022-07-30T09:01:59.624Z,6310.7
2022-07-30T09:04:02.930Z,7707.9
2022-07-30T09:05:59.987Z,8518.5
2022-07-30T09:10:02.595Z,8518.5
2022-07-30T09:12:05.846Z,7707.9
2022-07-30T09:14:03.879Z,8955.3
2022-07-30T09:16:02.712Z,8518.5
2022-07-30T09:18:02.282Z,6974.4
2022-07-30T09:20:00.071Z,8103.1
2022-07-30T09:22:03.571Z,6310.7
2022-07-30T09:24:02.271Z,7707.9
2022-07-30T09:26:02.626Z,7707.9
2022-07-30T09:27:59.654Z,8518.5
2022-07-30T09:30:03.007Z,8103.1
2022-07-30T09:32:03.640Z,5710.1
2022-07-30T09:34:02.512Z,8955.3
2022-07-30T09:36:03.194Z,9414.4
2022-07-30T09:38:06.277Z,9897.1
2022-07-30T09:39:59.869Z,9897.1
2022-07-30T09:42:02.422Z,9414.4
2022-07-30T09:44:03.421Z,8955.3
2022-07-30T09:46:06.610Z,8955.3
2022-07-30T09:50:05.771Z,9897.1
2022-07-30T09:51:59.987Z,10404.6
2022-07-30T09:54:06.451Z,9897.1
2022-07-30T09:55:59.449Z,9414.4
2022-07-30T09:58:00.047Z,10404.6
2022-07-30T10:00:03.056Z,10404.6
2022-07-30T10:02:03.917Z,10404.6
2022-07-30T10:03:59.887Z,10938
2022-07-30T10:05:59.400Z,10938
2022-07-30T10:08:06.687Z,10938
2022-07-30T10:09:59.978Z,7707.9
2022-07-30T10:12:03.455Z,7332
2022-07-30T10:14:06.534Z,6974.4
2022-07-30T10:16:03.405Z,7707.9
2022-07-30T10:17:59.875Z,9897.1
2022-07-30T10:20:03.235Z,9897.1
2022-07-30T10:21:59.723Z,9897.1
2022-07-30T10:26:03.542Z,7332
2022-07-30T10:27:59.425Z,9414.4
2022-07-30T10:32:03.599Z,6974.4
2022-07-30T10:34:04.011Z,6310.7
2022-07-30T10:35:59.384Z,9897.1
2022-07-30T10:38:06.459Z,7332
2022-07-30T10:42:03.644Z,10938
2022-07-30T10:44:07.171Z,9897.1
2022-07-30T10:46:00.549Z,9897.1
2022-07-30T10:48:13.056Z,10404.6
2022-07-30T10:49:59.387Z,10404.6
2022-07-30T10:51:59.331Z,7332
2022-07-30T10:53:59.621Z,7332
2022-07-30T10:56:03.032Z,10404.6
2022-07-30T10:58:03.261Z,10404.6
2022-07-30T10:59:59.825Z,8518.5
2022-07-30T11:01:59.361Z,7332
2022-07-30T11:04:00.112Z,6634.2
2022-07-30T11:05:59.798Z,5710.1
2022-07-30T11:08:03.444Z,8518.5
2022-07-30T11:10:05.704Z,9897.1
2022-07-30T11:12:02.389Z,9897.1
2022-07-30T11:14:00.157Z,5431.7
2022-07-30T11:15:59.317Z,6634.2
2022-07-30T11:18:11.491Z,5431.7
2022-07-30T11:19:59.994Z,6002.9
2022-07-30T11:22:04.296Z,6974.4
2022-07-30T11:24:13.646Z,7332
2022-07-30T11:28:06.378Z,7332
2022-07-30T11:29:59.417Z,6974.4
2022-07-30T11:32:06.621Z,7332
2022-07-30T11:34:03.074Z,5710.1
2022-07-30T11:36:06.143Z,6634.2
2022-07-30T11:38:04.211Z,8955.3
2022-07-30T11:40:00.081Z,9414.4
2022-07-30T11:44:03.076Z,10938
2022-07-30T11:45:59.880Z,10938
2022-07-30T11:48:09.747Z,10938
2022-07-30T11:49:59.571Z,11498.8
2022-07-30T11:52:07.626Z,11498.8
2022-07-30T11:54:03.351Z,11498.8
2022-07-30T11:56:00.137Z,10404.6
2022-07-30T11:58:07.240Z,6634.2
2022-07-30T11:59:59.354Z,6634.2
2022-07-30T12:02:03.922Z,9897.1
2022-07-30T12:04:02.672Z,10404.6
2022-07-30T12:06:05.902Z,10404.6
2022-07-30T12:08:07.378Z,10404.6
2022-07-30T12:10:06.942Z,10404.6
2022-07-30T12:12:00.838Z,7707.9
2022-07-30T12:13:59.971Z,10404.6
2022-07-30T12:15:59.407Z,10938
2022-07-30T12:18:17.516Z,8518.5
2022-07-30T12:20:03.654Z,10404.6
2022-07-30T12:22:00.096Z,8955.3
2022-07-30T12:23:59.844Z,8103.1
2022-07-30T12:26:04.109Z,8955.3
2022-07-30T12:28:00.059Z,10938
2022-07-30T12:32:02.631Z,10938
2022-07-30T12:34:03.223Z,10938
2022-07-30T12:36:02.653Z,10404.6
2022-07-30T12:38:02.914Z,10404.6
2022-07-30T12:40:00.062Z,10404.6
2022-07-30T12:42:06.320Z,10938
2022-07-30T12:43:59.990Z,8518.5
2022-07-30T12:45:59.400Z,7332
2022-07-30T12:48:03.526Z,8955.3
2022-07-30T12:50:00.761Z,9897.1
2022-07-30T12:52:00.327Z,10404.6
2022-07-30T12:53:59.545Z,10404.6
2022-07-30T12:55:59.439Z,7332
2022-07-30T12:58:08.553Z,10404.6
2022-07-30T13:00:03.824Z,6974.4
2022-07-30T13:02:03.888Z,7332
2022-07-30T13:04:13.690Z,7707.9
2022-07-30T13:06:00.107Z,8103.1
2022-07-30T13:07:59.419Z,10938
2022-07-30T13:09:59.859Z,11498.8
2022-07-30T13:12:06.880Z,8103.1
2022-07-30T13:14:07.159Z,10938
2022-07-30T13:16:02.765Z,10404.6
2022-07-30T13:18:06.395Z,6634.2
2022-07-30T13:19:59.543Z,6310.7
2022-07-30T13:22:00.009Z,9897.1
2022-07-30T13:24:03.786Z,10404.6
2022-07-30T13:25:59.368Z,10938
2022-07-30T13:28:02.805Z,9897.1
2022-07-30T13:30:03.789Z,10404.6
2022-07-30T13:32:06.774Z,10404.6
2022-07-30T13:34:00.914Z,7332
2022-07-30T13:35:59.482Z,8518.5
2022-07-30T13:38:00.202Z,9897.1
2022-07-30T13:39:59.931Z,10404.6
2022-07-30T13:41:59.455Z,10404.6
2022-07-30T13:44:09.588Z,9897.1
2022-07-30T13:48:02.908Z,9897.1
2022-07-30T13:50:10.238Z,10404.6
2022-07-30T13:52:03.091Z,10404.6
2022-07-30T13:53:59.746Z,10404.6
2022-07-30T13:56:12.659Z,9897.1
2022-07-30T13:58:03.324Z,9414.4
2022-07-30T14:00:04.236Z,9897.1
2022-07-30T14:01:59.496Z,10404.6
2022-07-30T14:03:59.405Z,10404.6
2022-07-30T14:06:10.251Z,9897.1
2022-07-30T14:08:02.534Z,10404.6
2022-07-30T14:10:03.345Z,9897.1
2022-07-30T14:12:05.494Z,10404.6
2022-07-30T14:14:02.869Z,9897.1
2022-07-30T14:15:59.446Z,9897.1
2022-07-30T14:17:59.958Z,9414.4
2022-07-30T14:19:59.927Z,8955.3
2022-07-30T14:22:03.691Z,6634.2
2022-07-30T14:23:59.960Z,9897.1
2022-07-30T14:26:02.557Z,6634.2
2022-07-30T14:28:02.501Z,6634.2
2022-07-30T14:29:59.475Z,8103.1
2022-07-30T14:31:59.957Z,6634.2
2022-07-30T14:34:00.125Z,8955.3
2022-07-30T14:36:03.490Z,5431.7
2022-07-30T14:38:06.800Z,5166.8
2022-07-30T14:40:00.010Z,5166.8
2022-07-30T14:42:00.014Z,4675.1
2022-07-30T14:46:02.616Z,5431.7
2022-07-30T14:47:59.411Z,8518.5
2022-07-30T14:50:03.544Z,8103.1
2022-07-30T14:52:03.476Z,8955.3
2022-07-30T14:54:00.508Z,8955.3
2022-07-30T14:56:13.290Z,8955.3
2022-07-30T14:58:03.493Z,8103.1
2022-07-30T14:59:59.536Z,7707.9
2022-07-30T15:01:59.982Z,8103.1
2022-07-30T15:04:03.014Z,7707.9
2022-07-30T15:05:59.937Z,7707.9
2022-07-30T15:08:06.245Z,4675.1
2022-07-30T15:09:59.492Z,4914.8
2022-07-30T15:12:08.098Z,4447.1
2022-07-30T15:14:00.116Z,6974.4
2022-07-30T15:16:03.633Z,6974.4
2022-07-30T15:18:02.427Z,4023.9
2022-07-30T15:20:06.875Z,3827.6
2022-07-30T15:22:07.525Z,3641
2022-07-30T15:24:00.021Z,3827.6
2022-07-30T15:25:59.641Z,4023.9
2022-07-30T15:28:02.822Z,4023.9
2022-07-30T15:29:59.792Z,4230.2
2022-07-30T15:32:00.862Z,4023.9
2022-07-30T15:34:03.818Z,3641
2022-07-30T15:36:03.679Z,3463.4
2022-07-30T15:38:00.264Z,3463.4
2022-07-30T15:42:07.434Z,4023.9
2022-07-30T15:44:03.589Z,4023.9
2022-07-30T15:45:59.447Z,3827.6
2022-07-30T15:48:06.708Z,4023.9
2022-07-30T15:49:59.707Z,4023.9
2022-07-30T15:51:59.415Z,4023.9
2022-07-30T15:54:02.655Z,3827.6
2022-07-30T15:55:59.434Z,3641
2022-07-30T15:58:09.038Z,3463.4
2022-07-30T16:00:05.780Z,3133.8
2022-07-30T16:02:02.373Z,2697.3
2022-07-30T16:04:00.153Z,2440.6
2022-07-30T16:06:02.505Z,2100.6
2022-07-30T16:08:00.186Z,1900.7
2022-07-30T16:09:59.531Z,1808
2022-07-30T16:12:03.142Z,1998.2
2022-07-30T16:14:03.369Z,2208.3
2022-07-30T16:16:06.597Z,4023.9
2022-07-30T16:18:09.886Z,2981
2022-07-30T16:19:59.419Z,3463.4
2022-07-30T16:22:03.104Z,3827.6
2022-07-30T16:24:09.967Z,2981
2022-07-30T16:26:02.944Z,2835.6
2022-07-30T16:27:59.538Z,2835.6
2022-07-30T16:30:00.130Z,2565.7
2022-07-30T16:32:00.427Z,2321.6
2022-07-30T16:34:03.321Z,2208.3
2022-07-30T16:36:00.084Z,2565.7
2022-07-30T16:38:03.308Z,2100.6
2022-07-30T16:40:00.123Z,1998.2
2022-07-30T16:42:02.375Z,1998.2
2022-07-30T16:44:03.698Z,2100.6
2022-07-30T16:46:12.945Z,1998.2
2022-07-30T16:47:59.404Z,1900.7
2022-07-30T16:50:09.612Z,1719.9
2022-07-30T16:51:59.557Z,1636
2022-07-30T16:56:03.544Z,1408.1
2022-07-30T16:58:03.755Z,1212
2022-07-30T17:00:00.163Z,1096.6
2022-07-30T17:02:00.505Z,1043.1
2022-07-30T17:04:02.963Z,897.8
2022-07-30T17:06:00.131Z,699.2
2022-07-30T17:07:59.450Z,632.7
2022-07-30T17:09:59.463Z,601.8
2022-07-30T17:11:59.686Z,665.1
2022-07-30T17:13:59.828Z,772.8
2022-07-30T17:16:06.245Z,897.8
2022-07-30T17:18:02.983Z,1212
2022-07-30T17:20:00.037Z,1998.2
2022-07-30T17:21:59.576Z,2208.3
2022-07-30T17:24:04.126Z,1808
2022-07-30T17:25:59.995Z,1719.9
2022-07-30T17:27:59.665Z,1900.7
2022-07-30T17:29:59.429Z,2208.3
2022-07-30T17:31:59.977Z,2565.7
2022-07-30T17:34:02.999Z,2835.6
2022-07-30T17:36:09.491Z,2697.3
2022-07-30T17:38:00.213Z,2208.3
2022-07-30T17:40:18.931Z,2100.6
2022-07-30T17:42:02.801Z,1900.7
2022-07-30T17:43:59.751Z,2100.6
2022-07-30T17:46:06.784Z,1556.2
2022-07-30T17:48:06.286Z,1339.4
2022-07-30T17:49:59.421Z,1212
2022-07-30T17:52:06.278Z,1043.1
2022-07-30T17:54:10.265Z,992.3
2022-07-30T17:55:59.948Z,897.8
2022-07-30T17:58:03.015Z,897.8
2022-07-30T18:00:03.741Z,897.8
2022-07-30T18:01:59.538Z,854.1
2022-07-30T18:04:02.917Z,812.4
2022-07-30T18:06:06.879Z,699.2
2022-07-30T18:08:10.103Z,601.8
2022-07-30T18:10:06.560Z,518
2022-07-30T18:12:00.590Z,492.7
2022-07-30T18:15:59.420Z,445.9
2022-07-30T18:17:59.899Z,445.9
2022-07-30T18:19:59.503Z,424.1
2022-07-30T18:22:02.347Z,383.8
2022-07-30T18:24:06.851Z,330.3
2022-07-30T18:25:59.479Z,298.9
2022-07-30T18:28:06.759Z,257.2
2022-07-30T18:29:59.450Z,232.8
2022-07-30T18:31:59.658Z,210.6
2022-07-30T18:33:59.355Z,190.6
2022-07-30T18:36:00.408Z,172.4
2022-07-30T18:37:59.347Z,148.4
2022-07-30T18:39:59.573Z,127.7
2022-07-30T18:42:02.871Z,109.9
2022-07-30T18:44:03.191Z,99.5
2022-07-30T18:45:59.593Z,85.6
2022-07-30T18:48:06.109Z,73.7
2022-07-30T18:50:00.068Z,66.7
2022-07-30T18:51:59.700Z,63.4
2022-07-30T18:53:59.474Z,63.4
2022-07-30T18:56:05.972Z,60.3
2022-07-30T18:58:06.615Z,54.6
2022-07-30T18:59:59.997Z,49.4
2022-07-30T19:02:02.669Z,42.5
2022-07-30T19:03:59.896Z,34.8
2022-07-30T19:05:59.516Z,28.5
2022-07-30T19:07:59.466Z,22.2
2022-07-30T19:10:02.841Z,17.3
2022-07-30T19:12:03.198Z,12.8
2022-07-30T19:14:02.728Z,9.5
2022-07-30T19:18:00.200Z,5
2022-07-30T19:19:59.850Z,3.5
2022-07-30T19:22:03.895Z,2.3
2022-07-30T19:23:59.697Z,1.6
2022-07-30T19:26:03.541Z,1.2
2022-07-30T19:28:02.450Z,0.8
2022-07-30T19:29:59.710Z,0.6
2022-07-30T19:31:59.639Z,0.5
2022-07-30T19:34:09.364Z,0.4
2022-07-30T19:36:03.949Z,0.3
2022-07-30T19:38:03.571Z,0.2
2022-07-30T19:40:10.115Z,0.2
2022-07-30T19:41:59.460Z,0.2
2022-07-30T19:43:59.458Z,0.1
2022-07-30T19:46:02.903Z,0.1
2022-07-30T19:48:00.202Z,0
2022-07-30T19:50:03.108Z,0
2022-07-30T19:52:09.777Z,0
2022-07-30T19:54:04.301Z,0
2022-07-30T19:56:21.920Z,0
2022-07-30T19:58:21.020Z,0
2022-07-30T20:00:24.760Z,1
2022-07-30T20:02:17.041Z,1
2022-07-30T20:04:19.763Z,1
2022-07-30T20:06:24.266Z,1
2022-07-30T20:08:17.073Z,1
2022-07-30T20:10:23.383Z,1
2022-07-30T20:12:17.225Z,1
2022-07-30T20:14:17.033Z,1
2022-07-30T20:16:17.285Z,1
2022-07-30T20:18:17.494Z,1
2022-07-30T20:20:26.296Z,1
2022-07-30T20:22:20.776Z,1
2022-07-30T20:24:17.980Z,1
2022-07-30T20:26:19.118Z,1
2022-07-30T20:28:17.717Z,1
2022-07-30T20:30:25.124Z,1
2022-07-30T20:32:17.395Z,1
2022-07-30T20:34:20.131Z,1
2022-07-30T20:36:18.067Z,1
2022-07-30T20:38:17.741Z,1
2022-07-30T20:40:19.370Z,1
2022-07-30T20:42:17.130Z,1
2022-07-30T20:44:23.248Z,1
2022-07-30T20:46:17.015Z,1
2022-07-30T20:48:25.459Z,1
2022-07-30T20:50:17.241Z,1
2022-07-30T20:52:17.559Z,1
2022-07-30T20:56:17.309Z,1
2022-07-30T20:58:20.936Z,1
2022-07-30T21:00:17.683Z,1
2022-07-30T21:02:26.870Z,1
2022-07-30T21:04:23.750Z,1
2022-07-30T21:06:17.506Z,1
2022-07-30T21:08:17.168Z,1
2022-07-30T21:12:17.137Z,1
2022-07-30T21:14:17.819Z,1
2022-07-30T21:16:21.068Z,1
2022-07-30T21:18:24.160Z,1
2022-07-30T21:20:17.536Z,1
2022-07-30T21:22:17.198Z,1
2022-07-30T21:24:17.548Z,1
2022-07-30T21:26:17.178Z,1
2022-07-30T21:28:18.445Z,1
2022-07-30T21:30:17.569Z,1
2022-07-30T21:32:18.315Z,1
2022-07-30T21:34:20.507Z,1
2022-07-30T21:36:17.666Z,1
2022-07-30T21:38:21.052Z,1
2022-07-30T21:40:17.270Z,1
2022-07-30T21:42:26.026Z,1
2022-07-30T21:44:17.474Z,1
2022-07-30T21:46:25.115Z,1
2022-07-30T21:48:17.118Z,1
2022-07-30T21:50:17.069Z,1
2022-07-30T21:52:17.013Z,1
2022-07-30T21:54:19.329Z,1
2022-07-30T21:56:17.657Z,1
2022-07-30T21:58:24.164Z,1
2022-07-30T22:00:24.363Z,1
2022-07-30T22:02:24.261Z,1
2022-07-30T22:04:20.976Z,1
2022-07-30T22:06:16.992Z,1
2022-07-30T22:08:17.267Z,1
2022-07-30T22:10:21.397Z,1
2022-07-30T22:12:25.767Z,1
2022-07-30T22:14:17.782Z,1
2022-07-30T22:16:17.022Z,1
2022-07-30T22:18:17.163Z,1
2022-07-30T22:20:21.192Z,1
2022-07-30T22:22:26.523Z,1
2022-07-30T22:24:26.464Z,1
2022-07-30T22:26:16.999Z,1
2022-07-30T22:28:17.700Z,1
2022-07-30T22:30:21.102Z,1
2022-07-30T22:32:17.898Z,1
2022-07-30T22:34:17.107Z,1
2022-07-30T22:36:17.551Z,1
2022-07-30T22:38:17.250Z,1
2022-07-30T22:40:21.182Z,1
2022-07-30T22:42:17.476Z,1
2022-07-30T22:44:24.076Z,1
2022-07-30T22:46:30.727Z,1
2022-07-30T22:48:17.708Z,1
2022-07-30T22:50:17.176Z,1
2022-07-30T22:52:19.543Z,1
2022-07-30T22:54:17.111Z,1
2022-07-30T22:56:17.188Z,1
2022-07-30T22:58:17.047Z,1
2022-07-30T23:00:27.598Z,1
2022-07-30T23:02:17.851Z,1
2022-07-30T23:04:17.707Z,1
2022-07-30T23:06:17.738Z,1
2022-07-30T23:08:17.818Z,1
2022-07-30T23:10:18.473Z,1
2022-07-30T23:12:17.658Z,1
2022-07-30T23:14:17.646Z,1
2022-07-30T23:16:17.003Z,1
2022-07-30T23:18:17.542Z,1
2022-07-30T23:20:17.680Z,1
2022-07-30T23:22:20.884Z,1
2022-07-30T23:24:17.842Z,1
2022-07-30T23:26:17.566Z,1
2022-07-30T23:28:19.930Z,1
2022-07-30T23:30:24.312Z,1
2022-07-30T23:32:20.425Z,1
2022-07-30T23:34:17.285Z,1
2022-07-30T23:36:17.275Z,1
2022-07-30T23:38:17.352Z,1
2022-07-30T23:40:17.621Z,1
2022-07-30T23:42:20.942Z,1
2022-07-30T23:44:17.473Z,1
2022-07-30T23:46:20.831Z,1
2022-07-30T23:48:21.198Z,1
2022-07-30T23:50:20.912Z,1
2022-07-30T23:52:21.037Z,1
2022-07-30T23:54:17.007Z,1
2022-07-30T23:56:17.032Z,1
2022-07-30T23:58:14.567Z,1
